Time;durP1;ratioP1;P1;durP2;ratioP2;P2;SDS_P1;SDS_P2;PMS_P1;PMS_P2;Temp;Humidity;BMP_temperature;BMP_pressure;BME280_temperature;BME280_humidity;BME280_pressure;Samples;Min_cycle;Max_cycle;Signal;HPM_P1;HPM_P2
2021/05/26 00:00:35;;;;;;;;;;;;;;;7.62;98.13;101005.59;5047220;28;1844;-79
2021/05/26 00:03:02;;;;;;;;;;;;;;;7.58;98.47;101010.09;5045919;28;833;-79
2021/05/26 00:05:29;;;;;;;;;;;;;;;7.51;98.55;101007.84;5045740;28;1957;-79
2021/05/26 00:07:56;;;;;;;;;;;;;;;7.44;98.18;101001.97;5061492;28;1267;-79
2021/05/26 00:10:21;;;;;;;;;;;;;;;7.37;98.04;100999.72;5056541;28;1927;-79
2021/05/26 00:12:46;;;;;;;;;;;;;;;7.28;98.21;100996.91;5055881;28;1964;-80
2021/05/26 00:15:13;;;;;;;;;;;;;;;7.27;98.58;100992.56;5066616;28;1010;-79
2021/05/26 00:17:38;;;;;;;;;;;;;;;7.23;98.90;100997.09;5065699;28;1193;-79
2021/05/26 00:20:04;;;;;;;;;;;;;;;7.23;98.83;100996.25;5065598;28;1915;-82
2021/05/26 00:22:31;;;;;;;;;;;;;;;7.25;98.94;101000.31;5064794;28;1902;-80
2021/05/26 00:24:56;;;;;;;;;;;;;;;7.23;99.29;101002.56;5065911;28;1894;-79
2021/05/26 00:27:21;;;;;;;;;;;;;;;7.19;99.28;100990.59;5056658;28;1852;-80
2021/05/26 00:29:47;;;;;;;;;;;;;;;7.09;98.83;100994.41;5046342;28;892;-79
2021/05/26 00:32:14;;;;;;;;;;;;;;;7.01;98.98;101003.44;5051034;28;2048;-80
2021/05/26 00:34:39;;;;;;;;;;;;;;;6.96;99.27;100993.41;5065941;28;988;-79
2021/05/26 00:37:05;;;;;;;;;;;;;;;6.97;99.41;101005.19;5066091;28;1221;-80
2021/05/26 00:39:31;;;;;;;;;;;;;;;6.95;99.52;100993.69;5065479;28;942;-79
2021/05/26 00:41:56;;;;;;;;;;;;;;;6.95;99.24;100986.28;5061599;28;2037;-80
2021/05/26 00:44:21;;;;;;;;;;;;;;;6.99;100.00;100985.66;5046778;28;999;-79
2021/05/26 00:46:47;;;;;;;;;;;;;;;7.01;99.94;100986.97;5046237;28;1954;-81
2021/05/26 00:49:12;;;;;;;;;;;;;;;7.05;99.75;100993.44;5046954;28;1256;-80
2021/05/26 00:51:38;;;;;;;;;;;;;;;7.10;99.80;100987.81;5051682;28;1867;-79
2021/05/26 00:54:04;;;;;;;;;;;;;;;7.11;100.00;100981.19;5069992;28;1038;-79
2021/05/26 00:56:34;;;;;;;;;;;;;;;7.05;99.48;100973.41;5051084;28;1847;-82
2021/05/26 00:59:01;;;;;;;;;;;;;;;6.94;99.76;100975.63;5069548;28;1917;-79
2021/05/26 01:01:26;;;;;;;;;;;;;;;6.82;99.90;100978.97;5069113;28;1050;-79
2021/05/26 01:03:55;;;;;;;;;;;;;;;6.78;100.00;100981.53;5068839;28;1879;-79
2021/05/26 01:06:20;;;;;;;;;;;;;;;6.71;100.00;100980.34;5049295;28;1936;-79
2021/05/26 01:08:46;;;;;;;;;;;;;;;6.70;100.00;100979.53;5048169;28;1185;-79
2021/05/26 01:11:11;;;;;;;;;;;;;;;6.61;100.00;100983.34;5045768;28;1080;-79
2021/05/26 01:13:37;;;;;;;;;;;;;;;6.55;100.00;100971.69;5062855;28;2057;-79
2021/05/26 01:16:02;;;;;;;;;;;;;;;6.53;100.00;100972.00;5049746;28;941;-79
2021/05/26 01:18:30;;;;;;;;;;;;;;;6.46;100.00;100974.38;5031660;28;1901;-80
2021/05/26 01:20:58;;;;;;;;;;;;;;;6.47;100.00;100967.78;5049485;28;786;-80
2021/05/26 01:23:24;;;;;;;;;;;;;;;6.42;100.00;100967.91;5050341;28;774;-79
2021/05/26 01:25:53;;;;;;;;;;;;;;;6.38;100.00;100962.25;5049301;28;1891;-79
2021/05/26 01:28:19;;;;;;;;;;;;;;;6.39;100.00;100961.09;5063140;28;1958;-80
2021/05/26 01:30:45;;;;;;;;;;;;;;;6.36;100.00;100961.72;5071637;28;1003;-80
2021/05/26 01:33:10;;;;;;;;;;;;;;;6.28;100.00;100956.19;5068062;28;892;-79
2021/05/26 01:35:43;;;;;;;;;;;;;;;6.29;100.00;100958.59;5067189;28;2017;-80
2021/05/26 01:38:13;;;;;;;;;;;;;;;6.30;100.00;100956.66;5048428;28;1789;-80
2021/05/26 01:40:46;;;;;;;;;;;;;;;6.30;100.00;100953.94;5049352;28;971;-80
2021/05/26 01:43:15;;;;;;;;;;;;;;;6.23;100.00;100948.91;5045792;28;2042;-79
2021/05/26 01:45:41;;;;;;;;;;;;;;;6.25;100.00;100954.06;5066264;28;1957;-80
2021/05/26 01:48:10;;;;;;;;;;;;;;;6.31;100.00;100953.63;5069601;28;1172;-79
2021/05/26 01:50:36;;;;;;;;;;;;;;;6.46;100.00;100959.88;5069260;28;1003;-80
2021/05/26 01:53:06;;;;;;;;;;;;;;;6.53;100.00;100957.47;5070753;28;931;-80
2021/05/26 01:55:33;;;;;;;;;;;;;;;6.53;100.00;100954.75;5051113;28;892;-80
2021/05/26 01:57:59;;;;;;;;;;;;;;;6.50;100.00;100955.34;5038918;28;1939;-80
2021/05/26 02:00:25;;;;;;;;;;;;;;;6.44;100.00;100951.94;5049974;28;892;-82
2021/05/26 02:02:51;;;;;;;;;;;;;;;6.39;100.00;100941.91;5048845;28;1101;-80
2021/05/26 02:05:17;;;;;;;;;;;;;;;6.29;100.00;100939.41;5048336;28;1886;-80
2021/05/26 02:07:43;;;;;;;;;;;;;;;6.24;100.00;100941.47;5048241;28;1201;-80
2021/05/26 02:10:11;;;;;;;;;;;;;;;6.22;100.00;100939.03;5049736;28;837;-80
2021/05/26 02:12:38;;;;;;;;;;;;;;;6.24;100.00;100938.72;5055136;28;1903;-81
2021/05/26 02:15:06;;;;;;;;;;;;;;;6.18;100.00;100938.84;5050073;28;2089;-80
2021/05/26 02:17:32;;;;;;;;;;;;;;;6.17;100.00;100933.69;5048165;28;1260;-80
2021/05/26 02:19:57;;;;;;;;;;;;;;;6.28;100.00;100929.59;5050021;28;991;-80
2021/05/26 02:22:23;;;;;;;;;;;;;;;6.39;100.00;100932.88;5049774;28;1015;-80
2021/05/26 02:24:49;;;;;;;;;;;;;;;6.46;100.00;100932.44;5050208;28;849;-80
2021/05/26 02:27:15;;;;;;;;;;;;;;;6.52;100.00;100944.88;5061231;28;1963;-82
2021/05/26 02:29:40;;;;;;;;;;;;;;;6.57;100.00;100937.34;5049413;28;788;-80
2021/05/26 02:32:07;;;;;;;;;;;;;;;6.59;100.00;100937.00;5049231;28;1058;-80
2021/05/26 02:34:33;;;;;;;;;;;;;;;6.56;100.00;100935.72;5049714;28;1309;-80
2021/05/26 02:36:58;;;;;;;;;;;;;;;6.56;100.00;100932.16;5048828;28;1307;-80
2021/05/26 02:39:24;;;;;;;;;;;;;;;6.48;100.00;100936.47;5049277;28;794;-79
2021/05/26 02:41:49;;;;;;;;;;;;;;;6.50;100.00;100928.72;5065987;28;1894;-80
2021/05/26 02:44:15;;;;;;;;;;;;;;;6.54;100.00;100934.41;5051853;28;1070;-79
2021/05/26 02:46:41;;;;;;;;;;;;;;;6.64;100.00;100928.66;5052750;28;1894;-79
2021/05/26 02:49:06;;;;;;;;;;;;;;;6.70;100.00;100929.34;5051836;28;1193;-79
2021/05/26 02:51:33;;;;;;;;;;;;;;;6.73;100.00;100921.28;5034039;28;968;-79
2021/05/26 02:53:59;;;;;;;;;;;;;;;6.70;100.00;100924.66;5054266;28;1015;-79
2021/05/26 02:56:24;;;;;;;;;;;;;;;6.72;100.00;100924.34;5063584;28;2064;-79
2021/05/26 02:58:50;;;;;;;;;;;;;;;6.78;100.00;100921.16;5036006;28;1181;-79
2021/05/26 03:01:15;;;;;;;;;;;;;;;6.78;100.00;100920.31;5056299;28;1011;-79
2021/05/26 03:03:41;;;;;;;;;;;;;;;6.75;100.00;100918.22;5056531;28;1039;-79
2021/05/26 03:06:06;;;;;;;;;;;;;;;6.76;100.00;100919.81;5056557;28;1920;-79
2021/05/26 03:08:31;;;;;;;;;;;;;;;6.80;100.00;100918.09;5056225;28;1248;-79
2021/05/26 03:10:58;;;;;;;;;;;;;;;6.90;100.00;100920.56;5053557;28;1885;-79
2021/05/26 03:13:33;;;;;;;;;;;;;;;6.99;100.00;100904.13;5058320;28;1862;-79
2021/05/26 03:15:59;;;;;;;;;;;;;;;7.06;100.00;100912.69;5032065;28;992;-80
2021/05/26 03:18:25;;;;;;;;;;;;;;;7.09;100.00;100912.03;5046119;28;1245;-80
2021/05/26 03:20:52;;;;;;;;;;;;;;;7.08;100.00;100917.88;5048262;28;897;-83
2021/05/26 03:23:19;;;;;;;;;;;;;;;7.04;100.00;100923.19;5049165;28;813;-80
2021/05/26 03:25:48;;;;;;;;;;;;;;;7.06;100.00;100915.44;5060168;28;1942;-81
2021/05/26 03:28:17;;;;;;;;;;;;;;;7.09;100.00;100909.28;5067474;28;2021;-80
2021/05/26 03:30:46;;;;;;;;;;;;;;;7.12;100.00;100910.59;5069057;28;1010;-80
2021/05/26 03:33:13;;;;;;;;;;;;;;;7.13;100.00;100912.22;5069694;28;1286;-80
2021/05/26 03:35:41;;;;;;;;;;;;;;;7.19;100.00;100899.97;5068727;28;995;-80
2021/05/26 03:38:10;;;;;;;;;;;;;;;7.20;100.00;100896.09;5047374;28;1895;-80
2021/05/26 03:40:37;;;;;;;;;;;;;;;7.22;100.00;100893.84;5049413;28;1027;-80
2021/05/26 03:43:02;;;;;;;;;;;;;;;7.23;100.00;100889.97;5062149;28;2037;-80
2021/05/26 03:45:28;;;;;;;;;;;;;;;7.27;100.00;100887.38;5070107;28;1867;-82
2021/05/26 03:47:56;;;;;;;;;;;;;;;7.28;99.73;100892.53;5063110;28;1185;-80
2021/05/26 03:50:22;;;;;;;;;;;;;;;7.30;99.60;100883.97;5068443;28;844;-80
2021/05/26 03:52:48;;;;;;;;;;;;;;;7.32;99.88;100895.47;5068779;28;1737;-80
2021/05/26 03:55:17;;;;;;;;;;;;;;;7.32;100.00;100890.78;5062208;28;1876;-79
2021/05/26 03:57:43;;;;;;;;;;;;;;;7.31;99.84;100891.09;5057077;28;1682;-79
2021/05/26 04:00:11;;;;;;;;;;;;;;;7.28;100.00;100887.03;5065284;28;885;-79
2021/05/26 04:02:37;;;;;;;;;;;;;;;7.28;100.00;100878.81;5066428;28;791;-79
2021/05/26 04:05:04;;;;;;;;;;;;;;;7.29;99.61;100882.38;5066578;28;1936;-79
2021/05/26 04:07:29;;;;;;;;;;;;;;;7.32;100.00;100889.97;5056461;28;1944;-79
2021/05/26 04:09:54;;;;;;;;;;;;;;;7.33;99.84;100883.34;5047374;28;1812;-79
2021/05/26 04:12:25;;;;;;;;;;;;;;;7.35;99.69;100883.81;5052560;28;1860;-80
2021/05/26 04:14:51;;;;;;;;;;;;;;;7.37;99.95;100878.84;5067342;28;844;-80
2021/05/26 04:17:17;;;;;;;;;;;;;;;7.40;99.62;100882.88;5065684;28;1193;-80
2021/05/26 04:19:43;;;;;;;;;;;;;;;7.43;99.96;100869.31;5065654;28;869;-80
2021/05/26 04:22:08;;;;;;;;;;;;;;;7.44;99.63;100881.09;5062537;28;2038;-80
2021/05/26 04:24:33;;;;;;;;;;;;;;;7.48;100.00;100871.88;5068064;28;760;-80
2021/05/26 04:26:59;;;;;;;;;;;;;;;7.54;99.20;100872.53;5066602;28;1978;-80
2021/05/26 04:29:24;;;;;;;;;;;;;;;7.59;99.07;100860.59;5051715;28;849;-79
2021/05/26 04:31:49;;;;;;;;;;;;;;;7.64;99.70;100866.72;5051971;28;777;-79
2021/05/26 04:34:15;;;;;;;;;;;;;;;7.70;98.48;100864.66;5051832;28;1902;-80
2021/05/26 04:36:40;;;;;;;;;;;;;;;7.77;98.63;100858.63;5057807;28;2071;-80
2021/05/26 04:39:07;;;;;;;;;;;;;;;7.70;98.55;100865.44;5054596;28;2219;-80
2021/05/26 04:41:32;;;;;;;;;;;;;;;7.68;98.62;100861.38;5052374;28;1841;-80
2021/05/26 04:43:57;;;;;;;;;;;;;;;7.69;98.77;100857.50;5072441;28;1022;-80
2021/05/26 04:46:23;;;;;;;;;;;;;;;7.69;98.35;100855.56;5071721;28;1878;-80
2021/05/26 04:48:48;;;;;;;;;;;;;;;7.71;98.46;100850.56;5068736;28;1959;-80
2021/05/26 04:51:14;;;;;;;;;;;;;;;7.73;98.86;100852.97;5071712;28;982;-80
2021/05/26 04:53:39;;;;;;;;;;;;;;;7.79;98.90;100854.44;5071727;28;1070;-80
2021/05/26 04:56:05;;;;;;;;;;;;;;;7.81;98.45;100851.38;5071752;28;912;-80
2021/05/26 04:58:30;;;;;;;;;;;;;;;7.86;98.57;100857.50;5054039;28;2120;-80
2021/05/26 05:00:55;;;;;;;;;;;;;;;7.87;98.41;100850.88;5051676;28;920;-81
2021/05/26 05:03:21;;;;;;;;;;;;;;;7.90;98.88;100849.41;5053259;28;1930;-80
2021/05/26 05:05:46;;;;;;;;;;;;;;;7.87;98.29;100850.88;5071309;28;1949;-81
2021/05/26 05:08:11;;;;;;;;;;;;;;;7.88;97.44;100843.44;5070456;28;1224;-79
2021/05/26 05:10:37;;;;;;;;;;;;;;;7.93;97.99;100842.47;5070776;28;1035;-79
2021/05/26 05:13:03;;;;;;;;;;;;;;;7.99;97.33;100838.41;5069573;28;1939;-79
2021/05/26 05:15:28;;;;;;;;;;;;;;;8.07;97.83;100837.59;5064552;28;929;-79
2021/05/26 05:17:54;;;;;;;;;;;;;;;8.16;97.48;100840.31;5066652;28;1911;-79
2021/05/26 05:20:21;;;;;;;;;;;;;;;8.22;96.87;100836.25;5067198;28;793;-79
2021/05/26 05:22:51;;;;;;;;;;;;;;;8.20;96.00;100836.59;5067256;28;1792;-80
2021/05/26 05:25:16;;;;;;;;;;;;;;;8.19;96.72;100837.72;5045650;28;1890;-79
2021/05/26 05:27:42;;;;;;;;;;;;;;;8.18;96.49;100835.28;5043018;28;1856;-79
2021/05/26 05:30:08;;;;;;;;;;;;;;;8.22;96.19;100834.31;5040075;28;1135;-80
2021/05/26 05:32:34;;;;;;;;;;;;;;;8.29;95.79;100842.88;5049209;28;1905;-80
2021/05/26 05:34:59;;;;;;;;;;;;;;;8.34;95.73;100832.81;5065086;28;1812;-79
2021/05/26 05:37:25;;;;;;;;;;;;;;;8.39;96.43;100838.97;5067891;28;1363;-79
2021/05/26 05:39:51;;;;;;;;;;;;;;;8.44;95.54;100833.31;5063305;28;1700;-80
2021/05/26 05:42:17;;;;;;;;;;;;;;;8.57;95.31;100825.16;5090220;28;1079;-79
2021/05/26 05:44:43;;;;;;;;;;;;;;;8.68;93.94;100828.34;5083092;28;888;-80
2021/05/26 05:47:08;;;;;;;;;;;;;;;8.76;94.21;100828.31;5069337;28;1942;-81
2021/05/26 05:49:33;;;;;;;;;;;;;;;8.80;93.62;100829.25;5070517;28;1058;-80
2021/05/26 05:51:59;;;;;;;;;;;;;;;8.82;93.02;100824.22;5068695;28;1907;-80
2021/05/26 05:54:24;;;;;;;;;;;;;;;8.78;93.02;100830.72;5069030;28;817;-79
2021/05/26 05:56:49;;;;;;;;;;;;;;;8.76;93.35;100831.06;5070101;28;1528;-80
2021/05/26 05:59:14;;;;;;;;;;;;;;;8.77;92.97;100840.94;5044892;28;1900;-79
2021/05/26 06:01:49;;;;;;;;;;;;;;;8.73;92.83;100823.44;5068729;28;859;-82
2021/05/26 06:04:14;;;;;;;;;;;;;;;8.75;92.60;100834.94;5070242;28;805;-79
2021/05/26 06:06:40;;;;;;;;;;;;;;;8.78;92.83;100820.50;5070191;28;1914;-80
2021/05/26 06:09:05;;;;;;;;;;;;;;;8.83;92.37;100828.59;5048761;28;1848;-80
2021/05/26 06:11:34;;;;;;;;;;;;;;;8.90;92.45;100836.31;5050267;28;1058;-82
2021/05/26 06:14:04;;;;;;;;;;;;;;;8.93;92.13;100821.06;5049487;28;1296;-79
2021/05/26 06:16:32;;;;;;;;;;;;;;;8.97;91.84;100830.31;5070422;28;1825;-80
2021/05/26 06:18:58;;;;;;;;;;;;;;;8.98;91.94;100829.97;5050458;28;1177;-82
2021/05/26 06:21:23;;;;;;;;;;;;;;;8.85;91.94;100831.00;5048873;28;1824;-80
2021/05/26 06:23:48;;;;;;;;;;;;;;;8.78;92.80;100827.97;5052432;28;1769;-80
2021/05/26 06:26:14;;;;;;;;;;;;;;;8.73;93.24;100828.97;5048179;28;1870;-80
2021/05/26 06:28:39;;;;;;;;;;;;;;;8.73;93.27;100823.44;5051986;28;1197;-80
2021/05/26 06:31:04;;;;;;;;;;;;;;;8.80;91.98;100814.69;5053015;28;2029;-81
2021/05/26 06:33:30;;;;;;;;;;;;;;;8.78;91.75;100819.72;5069504;28;1429;-81
2021/05/26 06:35:56;;;;;;;;;;;;;;;8.78;91.09;100816.97;5053334;28;1015;-80
2021/05/26 06:38:22;;;;;;;;;;;;;;;8.97;91.25;100811.03;5051883;28;1951;-80
2021/05/26 06:40:50;;;;;;;;;;;;;;;9.14;88.93;100810.91;5054196;28;1818;-81
2021/05/26 06:43:16;;;;;;;;;;;;;;;9.22;88.51;100839.53;5071918;28;987;-79
2021/05/26 06:45:41;;;;;;;;;;;;;;;9.27;88.73;100820.03;5060132;28;1870;-80
2021/05/26 06:48:07;;;;;;;;;;;;;;;9.45;87.49;100817.16;5062963;28;1947;-79
2021/05/26 06:50:33;;;;;;;;;;;;;;;10.18;86.40;100805.59;5052597;28;1006;-80
2021/05/26 06:52:58;;;;;;;;;;;;;;;10.75;83.66;100820.53;5063512;28;1999;-80
2021/05/26 06:55:23;;;;;;;;;;;;;;;11.34;79.76;100797.06;5085495;28;1712;-81
2021/05/26 06:57:49;;;;;;;;;;;;;;;11.34;76.82;100810.88;5085364;28;1731;-81
2021/05/26 07:00:14;;;;;;;;;;;;;;;12.06;75.83;100789.97;5069959;28;1098;-80
2021/05/26 07:02:40;;;;;;;;;;;;;;;13.17;72.30;100790.69;5067828;28;1014;-80
2021/05/26 07:05:06;;;;;;;;;;;;;;;14.76;72.83;100800.03;5068804;28;1918;-79
2021/05/26 07:07:31;;;;;;;;;;;;;;;15.70;66.91;100792.94;5068913;28;1204;-80
2021/05/26 07:09:56;;;;;;;;;;;;;;;15.04;67.63;100791.31;5070831;28;2314;-80
2021/05/26 07:12:22;;;;;;;;;;;;;;;14.40;65.39;100818.88;5077470;28;1796;-81
2021/05/26 07:14:49;;;;;;;;;;;;;;;13.16;70.55;100794.59;5066956;28;2696;-80
2021/05/26 07:17:14;;;;;;;;;;;;;;;13.05;71.59;100801.09;5055767;28;1996;-80
2021/05/26 07:19:39;;;;;;;;;;;;;;;12.46;70.20;100816.69;5066926;28;2202;-82
2021/05/26 07:22:05;;;;;;;;;;;;;;;11.53;73.09;100798.38;5057229;28;1957;-79
2021/05/26 07:24:30;;;;;;;;;;;;;;;11.62;75.11;100805.38;5061539;28;2274;-79
2021/05/26 07:26:55;;;;;;;;;;;;;;;11.95;72.62;100795.22;5063960;28;2309;-79
2021/05/26 07:29:21;;;;;;;;;;;;;;;11.08;75.05;100797.47;5065651;28;2059;-79
2021/05/26 07:31:46;;;;;;;;;;;;;;;10.43;78.62;100791.84;5065615;28;2067;-78
2021/05/26 07:34:11;;;;;;;;;;;;;;;9.95;81.09;100817.03;5064280;28;2297;-79
2021/05/26 07:36:37;;;;;;;;;;;;;;;9.43;83.03;100809.25;5065350;28;1955;-79
2021/05/26 07:39:04;;;;;;;;;;;;;;;9.32;84.10;100817.09;5064526;28;2090;-78
2021/05/26 07:41:29;;;;;;;;;;;;;;;9.36;83.38;100811.72;5063522;28;2078;-79
2021/05/26 07:43:55;;;;;;;;;;;;;;;9.77;83.61;100812.81;5046500;28;2080;-79
2021/05/26 07:46:20;;;;;;;;;;;;;;;10.91;81.67;100812.34;5055863;28;2034;-80
2021/05/26 07:48:48;;;;;;;;;;;;;;;11.55;75.78;100809.91;5045946;28;1315;-81
2021/05/26 07:51:16;;;;;;;;;;;;;;;11.79;74.51;100806.22;5063708;28;1973;-80
2021/05/26 07:53:41;;;;;;;;;;;;;;;12.96;74.36;100801.31;5066584;28;865;-79
2021/05/26 07:56:06;;;;;;;;;;;;;;;13.71;65.18;100799.34;5062502;28;2243;-79
2021/05/26 07:58:32;;;;;;;;;;;;;;;13.57;67.97;100787.97;5062948;28;2111;-79
2021/05/26 08:00:57;;;;;;;;;;;;;;;15.15;62.37;100788.66;5048263;28;2111;-78
2021/05/26 08:03:22;;;;;;;;;;;;;;;14.97;59.96;100782.88;5050592;28;2637;-79
2021/05/26 08:05:48;;;;;;;;;;;;;;;13.46;64.23;100788.56;5065864;28;1890;-80
2021/05/26 08:08:14;;;;;;;;;;;;;;;13.59;65.96;100791.19;5063249;28;2070;-79
2021/05/26 08:10:39;;;;;;;;;;;;;;;13.34;64.94;100799.75;5052082;28;1954;-79
2021/05/26 08:13:04;;;;;;;;;;;;;;;13.09;66.58;100786.13;5045813;28;1959;-79
2021/05/26 08:15:30;;;;;;;;;;;;;;;13.32;66.14;100783.50;5063564;28;2031;-79
2021/05/26 08:17:56;;;;;;;;;;;;;;;14.48;61.57;100787.25;5064372;28;2071;-79
2021/05/26 08:20:22;;;;;;;;;;;;;;;15.69;57.45;100785.75;5064521;28;1030;-79
2021/05/26 08:22:49;;;;;;;;;;;;;;;16.21;57.81;100781.16;5065761;28;893;-79
2021/05/26 08:25:14;;;;;;;;;;;;;;;14.81;57.89;100785.81;5065126;28;2181;-80
2021/05/26 08:27:39;;;;;;;;;;;;;;;15.73;56.61;100783.84;5064000;28;1912;-79
2021/05/26 08:30:06;;;;;;;;;;;;;;;16.82;56.14;100766.91;5052096;28;2059;-80
2021/05/26 08:32:32;;;;;;;;;;;;;;;16.44;52.95;100778.19;5043194;28;887;-79
2021/05/26 08:34:57;;;;;;;;;;;;;;;15.89;56.74;100767.72;5064444;28;2014;-80
2021/05/26 08:37:23;;;;;;;;;;;;;;;16.93;53.69;100762.22;5067856;28;1209;-79
2021/05/26 08:39:48;;;;;;;;;;;;;;;16.30;53.60;100772.47;5067639;28;2043;-79
2021/05/26 08:42:17;;;;;;;;;;;;;;;14.91;57.14;100764.09;5065285;28;2074;-79
2021/05/26 08:44:43;;;;;;;;;;;;;;;13.66;60.23;100766.34;5057417;28;2224;-80
2021/05/26 08:47:14;;;;;;;;;;;;;;;13.08;64.08;100754.06;5045322;28;1959;-79
2021/05/26 08:49:43;;;;;;;;;;;;;;;13.03;64.66;100750.75;5060975;28;1910;-80
2021/05/26 08:52:09;;;;;;;;;;;;;;;12.70;65.57;100750.03;5065612;28;2095;-79
2021/05/26 08:54:34;;;;;;;;;;;;;;;12.17;66.08;100764.19;5066656;28;812;-79
2021/05/26 08:57:00;;;;;;;;;;;;;;;11.59;69.92;100756.31;5062354;28;2062;-79
2021/05/26 08:59:25;;;;;;;;;;;;;;;11.59;71.86;100749.97;5059853;28;2013;-79
2021/05/26 09:01:51;;;;;;;;;;;;;;;11.17;72.21;100756.69;5044638;28;1035;-79
2021/05/26 09:04:34;;;;;;;;;;;;;;;10.71;74.22;100761.59;5055565;28;2052;-78
2021/05/26 09:07:12;;;;;;;;;;;;;;;10.54;76.75;100752.41;5065565;28;1890;-78
2021/05/26 09:09:55;;;;;;;;;;;;;;;10.76;76.56;100750.31;5063661;28;2267;-79
2021/05/26 09:12:31;;;;;;;;;;;;;;;11.41;74.26;100743.94;5064913;28;2083;-78
2021/05/26 09:15:13;;;;;;;;;;;;;;;11.77;72.52;100744.94;5058370;28;2079;-79
2021/05/26 09:17:39;;;;;;;;;;;;;;;11.63;72.23;100743.38;5068383;28;1228;-79
2021/05/26 09:20:29;;;;;;;;;;;;;;;11.73;73.75;100741.25;5050841;28;1026;-80
2021/05/26 09:23:06;;;;;;;;;;;;;;;11.69;72.06;100732.84;5067736;28;2134;-79
2021/05/26 09:25:34;;;;;;;;;;;;;;;11.28;73.73;100737.63;5066277;28;2085;-79
2021/05/26 09:28:22;;;;;;;;;;;;;;;10.76;75.43;100744.00;5068161;28;2113;-79
2021/05/26 09:31:05;;;;;;;;;;;;;;;10.43;77.55;100744.94;5050471;28;2012;-79
2021/05/26 09:33:39;;;;;;;;;;;;;;;10.41;79.40;100747.22;5051386;28;2148;-78
2021/05/26 09:36:07;;;;;;;;;;;;;;;10.41;79.82;100750.00;5052413;28;2004;-78
2021/05/26 09:38:32;;;;;;;;;;;;;;;10.16;80.28;100750.75;5084786;28;1204;-79
2021/05/26 09:41:10;;;;;;;;;;;;;;;10.04;79.95;100745.22;5070418;28;1770;-78
2021/05/26 09:43:44;;;;;;;;;;;;;;;10.07;81.11;100749.22;5036838;28;1067;-78
2021/05/26 09:46:26;;;;;;;;;;;;;;;10.18;81.60;100755.94;5062017;28;1961;-78
2021/05/26 09:49:04;;;;;;;;;;;;;;;10.26;82.02;100756.97;5061259;28;1337;-78
2021/05/26 09:51:31;;;;;;;;;;;;;;;10.42;82.57;100757.13;5066150;28;865;-78
2021/05/26 09:54:27;;;;;;;;;;;;;;;10.52;82.96;100751.16;5083049;28;1892;-79
2021/05/26 09:57:12;;;;;;;;;;;;;;;10.52;81.74;100740.13;5066013;28;1271;-80
2021/05/26 09:59:39;;;;;;;;;;;;;;;10.14;82.56;100747.53;5050518;28;1170;-80
2021/05/26 10:02:07;;;;;;;;;;;;;;;10.08;84.81;100742.56;5068397;28;1847;-81
2021/05/26 10:04:32;;;;;;;;;;;;;;;10.14;85.08;100739.25;5067489;28;1839;-81
2021/05/26 10:07:04;;;;;;;;;;;;;;;10.09;85.01;100738.69;5068307;28;1878;-81
2021/05/26 10:09:33;;;;;;;;;;;;;;;9.90;85.62;100741.97;5050818;28;1240;-80
2021/05/26 10:11:59;;;;;;;;;;;;;;;9.75;85.82;100737.91;5061060;28;1923;-80
2021/05/26 10:14:27;;;;;;;;;;;;;;;10.03;86.59;100737.28;5054723;28;2009;-79
2021/05/26 10:16:56;;;;;;;;;;;;;;;10.85;84.78;100731.66;5068954;28;2041;-80
2021/05/26 10:19:24;;;;;;;;;;;;;;;11.83;80.38;100727.72;5064292;28;3726;-81
2021/05/26 10:21:50;;;;;;;;;;;;;;;13.35;75.25;100732.84;5068223;28;3247;-81
2021/05/26 10:24:18;;;;;;;;;;;;;;;13.76;69.02;100726.13;5058586;28;3192;-81
2021/05/26 10:26:46;;;;;;;;;;;;;;;12.75;73.39;100724.00;5068628;28;1874;-81
2021/05/26 10:29:33;;;;;;;;;;;;;;;12.41;74.05;100724.44;5064528;28;2146;-80
2021/05/26 10:32:07;;;;;;;;;;;;;;;12.88;71.63;100724.72;5048164;28;818;-80
2021/05/26 10:34:42;;;;;;;;;;;;;;;13.02;68.86;100711.16;5077642;28;2044;-80
2021/05/26 10:37:13;;;;;;;;;;;;;;;12.39;69.02;100701.06;5060202;28;1787;-79
2021/05/26 10:39:39;;;;;;;;;;;;;;;12.64;69.71;100696.06;5047347;28;1202;-79
2021/05/26 10:42:05;;;;;;;;;;;;;;;13.73;66.52;100709.00;5049524;28;1776;-80
2021/05/26 10:45:03;;;;;;;;;;;;;;;14.02;64.51;100692.06;5047999;28;1848;-79
2021/05/26 10:47:37;;;;;;;;;;;;;;;14.86;63.02;100692.94;5047323;28;1867;-79
2021/05/26 10:50:23;;;;;;;;;;;;;;;18.13;53.86;100674.84;5046081;28;845;-78
2021/05/26 10:52:57;;;;;;;;;;;;;;;21.07;47.98;100672.25;5057979;28;1741;-78
2021/05/26 10:55:36;;;;;;;;;;;;;;;20.84;42.74;100670.13;5056947;28;1813;-81
2021/05/26 10:58:15;;;;;;;;;;;;;;;21.62;43.97;100667.53;5064785;28;2665;-80
2021/05/26 11:00:51;;;;;;;;;;;;;;;21.44;43.18;100673.38;5066522;28;2005;-79
2021/05/26 11:03:25;;;;;;;;;;;;;;;20.13;44.61;100671.63;5058175;28;2083;-79
2021/05/26 11:06:10;;;;;;;;;;;;;;;19.74;48.03;100681.91;5067908;28;1897;-79
2021/05/26 11:08:42;;;;;;;;;;;;;;;21.95;42.62;100662.19;5061512;28;3246;-81
2021/05/26 11:11:26;;;;;;;;;;;;;;;23.07;41.10;100664.56;5067850;28;868;-80
2021/05/26 11:14:04;;;;;;;;;;;;;;;21.20;40.89;100669.69;5055887;28;1950;-80
2021/05/26 11:17:02;;;;;;;;;;;;;;;18.27;48.76;100669.25;5047940;28;1349;-79
2021/05/26 11:19:29;;;;;;;;;;;;;;;15.99;54.14;100685.50;5028125;28;1266;-80
2021/05/26 11:22:10;;;;;;;;;;;;;;;14.87;59.91;100677.88;5048409;28;805;-79
2021/05/26 11:24:39;;;;;;;;;;;;;;;13.97;61.58;100678.50;5047655;28;901;-79
2021/05/26 11:27:22;;;;;;;;;;;;;;;13.48;63.51;100714.09;5050320;28;1935;-80
2021/05/26 11:29:52;;;;;;;;;;;;;;;13.81;64.05;100700.84;5045212;28;1000;-79
2021/05/26 11:32:22;;;;;;;;;;;;;;;14.21;60.51;100680.88;5046377;28;1362;-81
2021/05/26 11:34:49;;;;;;;;;;;;;;;14.65;60.13;100697.03;5028476;28;893;-79
2021/05/26 11:37:29;;;;;;;;;;;;;;;14.89;58.92;100688.63;5046226;28;1280;-79
2021/05/26 11:39:55;;;;;;;;;;;;;;;15.86;56.79;100673.81;5044365;28;1998;-79
2021/05/26 11:42:26;;;;;;;;;;;;;;;17.22;53.28;100676.69;5049176;28;1984;-79
2021/05/26 11:44:57;;;;;;;;;;;;;;;16.97;51.71;100690.53;5048112;28;869;-81
2021/05/26 11:47:39;;;;;;;;;;;;;;;16.34;51.69;100690.53;5047085;28;1927;-81
2021/05/26 11:50:14;;;;;;;;;;;;;;;16.41;52.87;100689.00;5060957;28;2142;-80
2021/05/26 11:52:41;;;;;;;;;;;;;;;16.78;52.70;100701.97;5068863;28;847;-80
2021/05/26 11:55:07;;;;;;;;;;;;;;;16.71;51.12;100677.63;5070229;28;1007;-80
2021/05/26 11:57:41;;;;;;;;;;;;;;;15.44;54.15;100674.19;5065129;28;2024;-79
2021/05/26 12:00:08;;;;;;;;;;;;;;;14.47;56.26;100691.19;5072432;28;1015;-79
2021/05/26 12:02:34;;;;;;;;;;;;;;;13.90;58.59;100699.41;5076768;28;920;-80
2021/05/26 12:04:59;;;;;;;;;;;;;;;13.73;58.61;100702.66;5067203;28;1950;-80
2021/05/26 12:07:28;;;;;;;;;;;;;;;13.56;59.69;100670.63;5049623;28;1965;-79
2021/05/26 12:10:03;;;;;;;;;;;;;;;13.37;61.02;100674.25;5073196;28;1997;-79
2021/05/26 12:12:28;;;;;;;;;;;;;;;13.78;60.75;100685.72;5069754;28;1931;-78
2021/05/26 12:14:54;;;;;;;;;;;;;;;13.95;58.63;100683.63;5074715;28;1016;-78
2021/05/26 12:17:22;;;;;;;;;;;;;;;14.18;59.06;100686.38;5072987;28;1685;-80
2021/05/26 12:19:51;;;;;;;;;;;;;;;15.02;56.27;100678.88;5074336;28;884;-80
2021/05/26 12:22:19;;;;;;;;;;;;;;;15.57;53.30;100686.63;5056343;28;1888;-80
2021/05/26 12:24:53;;;;;;;;;;;;;;;15.15;55.31;100676.63;5047053;28;852;-83
2021/05/26 12:27:44;;;;;;;;;;;;;;;14.77;55.20;100637.66;5049547;28;1875;-81
2021/05/26 12:30:17;;;;;;;;;;;;;;;14.83;55.58;100680.63;5056592;28;1902;-81
2021/05/26 12:32:43;;;;;;;;;;;;;;;14.60;57.02;100682.66;5059576;28;1812;-81
2021/05/26 12:35:23;;;;;;;;;;;;;;;14.23;58.47;100689.63;5065656;28;1025;-82
2021/05/26 12:37:52;;;;;;;;;;;;;;;13.93;59.46;100684.00;5047125;28;1249;-80
2021/05/26 12:40:17;;;;;;;;;;;;;;;13.47;59.20;100695.84;5066192;28;933;-82
2021/05/26 12:42:43;;;;;;;;;;;;;;;12.78;63.18;100699.16;5059780;28;1879;-80
2021/05/26 12:45:26;;;;;;;;;;;;;;;12.19;67.19;100684.34;5045247;28;1337;-79
2021/05/26 12:47:54;;;;;;;;;;;;;;;12.59;67.39;100683.28;5049293;28;1200;-83
2021/05/26 12:50:23;;;;;;;;;;;;;;;12.96;65.46;100682.94;5051262;28;1232;-82
2021/05/26 12:52:55;;;;;;;;;;;;;;;12.99;66.48;100667.53;5069375;28;1007;-79
2021/05/26 12:55:24;;;;;;;;;;;;;;;13.94;62.74;100673.69;5069701;28;786;-82
2021/05/26 12:58:14;;;;;;;;;;;;;;;15.62;58.76;100661.25;5046743;28;1958;-80